Terminal Aerodrome Forecast
Issued by NWS Blacksburg, VA

Home | Current Version | Previous Version | Text Only | Print | Product List | Glossary On
Versions: 1 2 3 4 5 6 7 8 9 10 11 12 13 14 15 16 17 18 19
000
FTUS41 KRNK 170529
TAFDAN
TAF
KDAN 170529Z 1706/1806 00000KT P6SM OVC025
     FM170800 00000KT P6SM OVC015
     FM171000 VRB03KT P6SM OVC008
     FM171400 20005KT P6SM VCSH OVC015
     FM180200 23007KT 4SM -SHRA OVC020=

USA.gov is the U.S. government's official web portal to all federal, state and local government web resources and services.